Time;durP1;ratioP1;P1;durP2;ratioP2;P2;SDS_P1;SDS_P2;PMS_P1;PMS_P2;Temp;Humidity;BMP_temperature;BMP_pressure;BME280_temperature;BME280_humidity;BME280_pressure;Samples;Min_cycle;Max_cycle;Signal;HPM_P1;HPM_P2
2022/08/10 00:02:15;;;;;;;14.13;7.70;;;;;;;12.26;81.33;99885.06;2211973;81;20981;-81
2022/08/10 00:05:15;;;;;;;9.50;7.37;;;;;;;12.27;81.08;99883.34;2212022;81;20951;-80
2022/08/10 00:08:16;;;;;;;26.55;9.28;;;;;;;12.23;81.17;99882.39;2211831;81;20952;-80
2022/08/10 00:11:16;;;;;;;14.47;7.45;;;;;;;12.80;84.24;99872.64;2211881;81;20933;-78
2022/08/10 00:14:16;;;;;;;9.03;6.58;;;;;;;12.91;80.37;99878.08;2211888;81;20933;-80
2022/08/10 00:17:17;;;;;;;9.15;7.08;;;;;;;12.70;79.51;99882.48;2211802;81;21354;-80
2022/08/10 00:20:17;;;;;;;10.03;7.47;;;;;;;12.51;79.97;99874.69;2211454;81;20925;-84
2022/08/10 00:23:19;;;;;;;17.52;7.97;;;;;;;12.46;80.45;99873.70;2211809;81;20976;-83
2022/08/10 00:26:20;;;;;;;14.35;7.55;;;;;;;12.50;81.19;99872.92;2211908;81;21032;-83
2022/08/10 00:29:20;;;;;;;9.35;7.78;;;;;;;12.51;81.21;99869.45;2210927;81;21937;-80
2022/08/10 00:32:20;;;;;;;12.85;7.65;;;;;;;12.50;80.87;99868.98;2210433;81;20964;-80
2022/08/10 00:35:21;;;;;;;28.10;9.68;;;;;;;12.53;81.20;99871.67;2211158;81;20991;-80
2022/08/10 00:38:21;;;;;;;15.85;8.13;;;;;;;12.54;81.33;99871.24;2210610;81;21395;-81
2022/08/10 00:41:22;;;;;;;12.05;8.18;;;;;;;12.55;80.92;99869.08;2210390;81;20995;-81
2022/08/10 00:44:22;;;;;;;11.85;8.03;;;;;;;12.45;80.84;99871.94;2210050;81;21044;-81
2022/08/10 00:47:22;;;;;;;10.90;9.00;;;;;;;12.43;80.90;99870.59;2211515;81;21307;-81
2022/08/10 00:50:23;;;;;;;15.70;8.75;;;;;;;12.38;81.26;99870.93;2211554;81;21004;-81
2022/08/10 00:53:23;;;;;;;11.70;8.60;;;;;;;12.29;80.76;99875.09;2211825;81;20933;-83
2022/08/10 00:56:24;;;;;;;11.57;8.30;;;;;;;12.31;81.05;99873.39;2211339;81;21366;-80
2022/08/10 00:59:24;;;;;;;36.48;10.45;;;;;;;12.25;80.92;99870.21;2211235;80;21004;-81
2022/08/10 01:02:24;;;;;;;18.25;8.10;;;;;;;12.18;80.87;99870.05;2211930;81;20952;-81
2022/08/10 01:05:25;;;;;;;10.03;7.97;;;;;;;12.11;80.86;99869.00;2211730;81;21280;-81
2022/08/10 01:08:25;;;;;;;14.93;8.75;;;;;;;12.04;80.76;99867.98;2211732;81;20897;-81
2022/08/10 01:11:26;;;;;;;12.70;8.25;;;;;;;11.98;80.84;99871.77;2211882;81;20968;-80
2022/08/10 01:14:26;;;;;;;12.07;8.50;;;;;;;11.95;80.95;99870.39;2211562;81;21372;-81
2022/08/10 01:17:26;;;;;;;13.88;8.58;;;;;;;11.88;80.97;99871.10;2211569;81;20921;-80
2022/08/10 01:20:27;;;;;;;20.70;9.55;;;;;;;11.83;81.15;99875.77;2211624;81;20957;-79
2022/08/10 01:23:27;;;;;;;30.95;9.93;;;;;;;11.82;81.35;99879.23;2211934;81;20957;-81
2022/08/10 01:26:28;;;;;;;10.88;8.10;;;;;;;11.83;81.75;99871.42;2211755;81;20894;-81
2022/08/10 01:29:28;;;;;;;9.75;8.15;;;;;;;11.82;81.32;99874.89;2211750;81;21003;-80
2022/08/10 01:32:28;;;;;;;12.23;8.47;;;;;;;11.77;81.19;99873.47;2212216;81;20893;-80
2022/08/10 01:35:29;;;;;;;16.82;8.55;;;;;;;11.75;81.05;99870.33;2211371;81;20929;-80
2022/08/10 01:38:29;;;;;;;12.95;8.33;;;;;;;11.70;81.23;99872.84;2211932;81;20929;-82
2022/08/10 01:41:30;;;;;;;12.10;7.72;;;;;;;11.66;81.13;99868.80;2212159;81;20890;-80
2022/08/10 01:44:30;;;;;;;12.82;8.70;;;;;;;11.62;80.96;99877.42;2211729;81;20953;-81
2022/08/10 01:50:49;;;;;;;27.55;9.65;;;;;;;11.55;81.04;99874.20;2212055;81;21064;-81
2022/08/10 01:53:53;;;;;;;9.70;7.30;;;;;;;11.54;81.34;99871.13;2212449;81;20971;-80
2022/08/10 01:56:53;;;;;;;11.88;7.97;;;;;;;11.53;81.26;99880.70;2212679;81;21418;-80
2022/08/10 01:59:53;;;;;;;36.73;26.37;;;;;;;11.51;81.00;99873.24;2221924;80;21046;-80
2022/08/10 02:02:54;;;;;;;23.77;18.87;;;;;;;11.46;81.04;99871.83;2223034;80;20941;-79
2022/08/10 02:05:54;;;;;;;14.10;10.23;;;;;;;11.43;81.03;99870.44;2222684;80;21342;-79
2022/08/10 02:08:55;;;;;;;22.00;8.63;;;;;;;11.40;81.01;99871.67;2221551;80;20957;-79
2022/08/10 02:11:55;;;;;;;16.93;8.37;;;;;;;11.39;81.36;99872.52;2221975;80;21016;-81
2022/08/10 02:14:55;;;;;;;10.78;7.92;;;;;;;11.40;81.38;99873.41;2220263;80;21445;-76
2022/08/10 02:17:56;;;;;;;12.10;8.20;;;;;;;11.37;81.25;99878.13;2221651;80;21003;-81
2022/08/10 02:20:56;;;;;;;13.07;8.10;;;;;;;11.35;81.34;99880.25;2222876;80;20940;-80
2022/08/10 02:23:57;;;;;;;14.33;7.33;;;;;;;11.30;81.34;99877.52;2222434;80;21347;-78
2022/08/10 02:26:57;;;;;;;17.00;7.37;;;;;;;11.28;81.60;99872.67;2222682;80;20933;-78
2022/08/10 02:29:57;;;;;;;8.67;7.57;;;;;;;11.28;81.60;99874.41;2221938;80;21038;-78
2022/08/10 02:32:58;;;;;;;13.63;7.60;;;;;;;11.29;81.53;99882.28;2222602;80;20965;-81
2022/08/10 02:35:58;;;;;;;13.60;7.03;;;;;;;11.22;81.01;99879.02;2222217;80;21311;-81
2022/08/10 02:38:59;;;;;;;9.68;7.50;;;;;;;11.16;81.08;99885.39;2222345;80;20936;-81
2022/08/10 02:41:59;;;;;;;11.43;7.57;;;;;;;11.12;81.06;99877.02;2222801;80;20940;-81
2022/08/10 02:44:59;;;;;;;16.10;7.63;;;;;;;11.06;81.00;99880.77;2222830;80;21283;-81
2022/08/10 02:48:00;;;;;;;12.73;7.47;;;;;;;11.00;81.01;99887.14;2222773;80;20992;-82
2022/08/10 02:51:00;;;;;;;10.53;7.20;;;;;;;10.99;81.05;99889.30;2222595;80;20968;-81
2022/08/10 02:54:01;;;;;;;63.00;11.60;;;;;;;10.94;80.94;99891.78;2222688;80;20939;-82
2022/08/10 02:57:01;;;;;;;11.17;7.57;;;;;;;10.94;81.56;99889.59;2222801;80;20964;-81
2022/08/10 03:00:01;;;;;;;11.50;7.27;;;;;;;10.98;81.52;99886.22;2221447;80;21316;-81
2022/08/10 03:03:02;;;;;;;25.60;8.40;;;;;;;10.95;81.29;99885.72;2222505;80;20979;-81
2022/08/10 03:06:02;;;;;;;21.23;8.05;;;;;;;10.91;81.17;99884.28;2222491;80;20955;-81
2022/08/10 03:09:03;;;;;;;19.70;8.80;;;;;;;10.88;81.44;99890.73;2222909;80;20961;-81
2022/08/10 03:12:04;;;;;;;16.67;8.00;;;;;;;10.84;81.58;99889.34;2222663;80;20904;-81
2022/08/10 03:15:03;;;;;;;21.73;8.27;;;;;;;10.82;81.13;99887.53;2222352;80;20996;-80
2022/08/10 03:18:04;;;;;;;20.23;8.73;;;;;;;10.79;81.28;99890.06;2222269;80;21000;-81
2022/08/10 03:21:04;;;;;;;28.10;13.80;;;;;;;10.72;81.19;99890.73;2222406;80;20968;-81
2022/08/10 03:24:05;;;;;;;49.97;31.50;;;;;;;10.70;81.58;99894.61;2222351;80;20917;-81
2022/08/10 03:27:05;;;;;;;20.47;10.63;;;;;;;10.75;81.87;99888.20;2222050;80;21319;-81
2022/08/10 03:30:05;;;;;;;24.73;9.73;;;;;;;10.74;81.47;99894.27;2222126;80;20999;-81
2022/08/10 03:33:06;;;;;;;18.57;9.17;;;;;;;10.72;81.67;99893.34;2221697;80;20932;-81
2022/08/10 03:36:06;;;;;;;18.17;9.33;;;;;;;10.73;81.61;99893.39;2221733;80;21065;-81
2022/08/10 03:39:07;;;;;;;20.60;8.40;;;;;;;10.76;81.47;99891.28;2221980;80;20999;-82
2022/08/10 03:42:07;;;;;;;25.30;9.77;;;;;;;10.76;81.47;99891.28;2221707;80;20999;-82
2022/08/10 03:45:07;;;;;;;19.17;9.27;;;;;;;10.75;81.38;99893.44;2220300;80;20979;-82
2022/08/10 03:48:08;;;;;;;20.07;9.40;;;;;;;10.75;81.46;99894.31;2220219;80;20983;-82
2022/08/10 03:51:08;;;;;;;50.73;10.80;;;;;;;10.77;81.43;99893.94;2220063;80;21358;-81
2022/08/10 03:54:09;;;;;;;19.00;8.37;;;;;;;10.79;81.45;99894.86;2219932;80;21012;-81
2022/08/10 03:57:09;;;;;;;12.63;8.67;;;;;;;10.81;81.48;99898.83;2219257;80;20971;-81
2022/08/10 04:00:09;;;;;;;51.30;10.23;;;;;;;10.83;81.59;99901.06;2209900;80;21059;-82
2022/08/10 04:03:10;;;;;;;15.43;8.67;;;;;;;10.87;81.81;99909.86;2208892;81;20956;-82
2022/08/10 04:06:11;;;;;;;46.60;12.37;;;;;;;10.92;81.79;99911.76;2209182;81;21011;-80
2022/08/10 04:09:11;;;;;;;62.40;13.27;;;;;;;11.02;82.43;99912.89;2209908;81;21047;-81
2022/08/10 04:12:11;;;;;;;18.87;8.70;;;;;;;11.11;82.31;99907.48;2208755;81;21445;-79
2022/08/10 04:15:11;;;;;;;18.50;8.23;;;;;;;11.21;81.62;99911.22;2209242;81;20999;-81
2022/08/10 04:18:12;;;;;;;93.62;13.25;;;;;;;11.24;81.35;99910.42;2208520;81;20996;-81
2022/08/10 04:21:12;;;;;;;17.67;8.28;;;;;;;11.25;81.49;99911.77;2209182;81;21356;-82
2022/08/10 04:24:13;;;;;;;16.07;9.03;;;;;;;11.34;81.34;99919.88;2208761;81;21011;-82
2022/08/10 04:27:13;;;;;;;18.57;10.33;;;;;;;11.43;81.69;99922.73;2209030;81;21328;-81
2022/08/10 04:30:13;;;;;;;18.03;9.47;;;;;;;11.54;81.81;99923.42;2209063;81;21390;-81
2022/08/10 04:33:14;;;;;;;689.83;59.55;;;;;;;11.64;81.67;99918.45;2209275;81;20960;-79
2022/08/10 04:36:14;;;;;;;28.27;11.83;;;;;;;11.79;82.00;99922.78;2209194;81;21376;-82
2022/08/10 04:39:15;;;;;;;22.98;11.08;;;;;;;12.02;82.44;99915.47;2209104;81;21383;-82
2022/08/10 04:42:15;;;;;;;21.45;11.00;;;;;;;12.18;82.24;99911.50;2209133;81;20991;-81
2022/08/10 04:45:16;;;;;;;86.85;14.83;;;;;;;12.40;82.26;99911.55;2209093;81;20989;-82
2022/08/10 04:48:16;;;;;;;41.15;12.65;;;;;;;12.60;82.32;99910.66;2208941;81;21004;-82
2022/08/10 04:51:16;;;;;;;37.67;11.80;;;;;;;12.86;82.33;99908.55;2209586;81;21000;-82
2022/08/10 04:54:17;;;;;;;21.30;10.98;;;;;;;13.16;82.28;99922.27;2209963;81;20968;-82
2022/08/10 04:57:17;;;;;;;19.90;10.88;;;;;;;13.47;81.85;99919.80;2208744;81;21083;-80
2022/08/10 05:00:18;;;;;;;15.40;10.80;;;;;;;13.73;81.24;99920.23;2208121;80;21043;-82
2022/08/10 05:03:18;;;;;;;36.00;11.22;;;;;;;14.03;81.04;99918.55;2209200;81;21359;-83
2022/08/10 05:06:18;;;;;;;13.88;10.48;;;;;;;14.31;80.34;99921.14;2208698;81;21055;-82
2022/08/10 05:09:19;;;;;;;13.10;9.60;;;;;;;14.43;79.60;99923.09;2209117;81;20960;-82
2022/08/10 05:12:19;;;;;;;18.40;9.85;;;;;;;14.58;79.07;99921.55;2209514;81;21411;-83
2022/08/10 05:15:22;;;;;;;14.93;9.93;;;;;;;14.77;78.64;99929.69;2209326;81;21051;-82
2022/08/10 05:18:20;;;;;;;16.42;9.68;;;;;;;14.94;78.07;99928.14;2208381;81;20940;-82
2022/08/10 05:21:20;;;;;;;14.58;9.45;;;;;;;15.09;77.63;99930.94;2208475;81;21011;-81
2022/08/10 05:24:21;;;;;;;24.70;9.65;;;;;;;15.26;77.35;99932.44;2208575;81;21571;-81
2022/08/10 05:27:21;;;;;;;19.40;9.70;;;;;;;15.50;77.21;99935.73;2208665;81;20964;-81
2022/08/10 05:30:22;;;;;;;13.60;9.88;;;;;;;15.73;76.92;99935.57;2208321;81;21094;-83
2022/08/10 05:33:22;;;;;;;22.85;10.85;;;;;;;15.91;76.01;99930.89;2208568;81;20929;-82
2022/08/10 05:36:22;;;;;;;16.85;10.20;;;;;;;16.11;75.40;99931.03;2209567;81;20972;-82
2022/08/10 05:39:23;;;;;;;12.33;9.60;;;;;;;16.25;75.19;99932.00;2209106;81;21234;-81
2022/08/10 05:42:24;;;;;;;21.55;9.55;;;;;;;16.42;74.69;99929.46;2209585;81;20976;-83
2022/08/10 05:45:24;;;;;;;13.72;8.75;;;;;;;16.64;74.56;99921.26;2209443;81;20944;-82
2022/08/10 05:48:24;;;;;;;17.05;9.68;;;;;;;17.31;74.84;99918.42;2209943;81;20964;-82
2022/08/10 05:51:24;;;;;;;14.15;9.40;;;;;;;17.55;72.48;99917.60;2209762;81;21414;-84
2022/08/10 05:54:25;;;;;;;13.28;8.70;;;;;;;17.66;71.54;99920.25;2209874;81;21023;-83
2022/08/10 05:57:25;;;;;;;11.08;8.38;;;;;;;17.77;71.21;99927.33;2210672;81;21423;-83
2022/08/10 06:00:26;;;;;;;12.75;9.15;;;;;;;17.89;70.69;99926.88;2209746;81;21082;-83
2022/08/10 06:03:26;;;;;;;12.70;8.93;;;;;;;18.00;70.77;99926.43;2210925;81;20976;-83
2022/08/10 06:06:26;;;;;;;13.38;8.50;;;;;;;18.21;70.25;99930.84;2209820;81;20971;-82
2022/08/10 06:09:28;;;;;;;19.10;8.63;;;;;;;18.33;70.16;99930.38;2210005;81;20962;-82
2022/08/10 06:12:27;;;;;;;15.53;8.08;;;;;;;18.57;69.44;99924.13;2209226;81;20972;-82
2022/08/10 06:15:28;;;;;;;10.68;7.60;;;;;;;18.67;68.83;99930.30;2209156;81;21015;-83
2022/08/10 06:18:28;;;;;;;12.73;7.75;;;;;;;18.89;68.72;99930.66;2209436;81;20964;-83
2022/08/10 06:21:28;;;;;;;10.32;8.03;;;;;;;19.07;67.53;99929.68;2209541;81;21341;-81
2022/08/10 06:24:29;;;;;;;9.63;7.40;;;;;;;19.27;67.23;99932.25;2208683;81;20999;-81
2022/08/10 06:27:29;;;;;;;11.33;6.15;;;;;;;19.39;65.89;99928.20;2209719;81;20944;-83
2022/08/10 06:30:30;;;;;;;8.95;7.15;;;;;;;19.52;65.74;99927.26;2210936;81;21046;-82
2022/08/10 06:33:30;;;;;;;11.95;7.25;;;;;;;19.67;65.26;99936.41;2210477;81;20972;-83
2022/08/10 06:36:30;;;;;;;10.93;6.85;;;;;;;19.83;64.06;99933.19;2210350;81;21015;-83
2022/08/10 06:39:31;;;;;;;13.75;6.53;;;;;;;19.99;64.23;99936.17;2209482;81;21004;-82
2022/08/10 06:42:31;;;;;;;8.88;5.90;;;;;;;20.22;63.92;99939.05;2208783;81;21550;-81
2022/08/10 06:45:32;;;;;;;7.78;6.00;;;;;;;20.38;62.73;99935.35;2208390;81;20967;-82
2022/08/10 06:48:32;;;;;;;6.47;5.87;;;;;;;20.52;62.71;99933.91;2208632;81;21008;-81
2022/08/10 06:51:33;;;;;;;9.98;5.50;;;;;;;20.78;62.10;99929.62;2209051;81;20983;-81
2022/08/10 06:54:33;;;;;;;19.65;6.35;;;;;;;20.93;60.90;99936.98;2209045;81;21438;-81
2022/08/10 06:57:33;;;;;;;5.20;4.75;;;;;;;21.16;61.31;99936.67;2208429;81;21006;-81
2022/08/10 07:00:34;;;;;;;7.70;4.60;;;;;;;21.45;60.23;99930.97;2215653;80;21078;-83
2022/08/10 07:03:34;;;;;;;22.40;6.45;;;;;;;21.63;58.12;99935.13;2218367;80;21006;-80
2022/08/10 07:06:36;;;;;;;5.22;3.80;;;;;;;21.70;58.19;99930.63;2186805;80;21026;-82
2022/08/10 07:09:37;;;;;;;6.28;4.15;;;;;;;21.65;56.41;99936.43;2219095;80;20959;-80
2022/08/10 07:12:37;;;;;;;6.40;3.80;;;;;;;21.75;58.05;99928.31;2219035;80;20908;-80
2022/08/10 07:15:38;;;;;;;14.28;4.33;;;;;;;22.07;57.01;99928.25;2218794;80;20995;-81
2022/08/10 07:18:38;;;;;;;4.58;3.67;;;;;;;22.24;56.73;99929.70;2218764;80;20908;-81
2022/08/10 07:21:39;;;;;;;4.42;2.95;;;;;;;22.41;55.66;99921.41;2219083;80;20956;-81
2022/08/10 07:24:39;;;;;;;4.10;3.40;;;;;;;22.58;54.13;99918.45;2218767;80;21303;-81
2022/08/10 07:27:39;;;;;;;4.40;3.15;;;;;;;22.52;53.07;99923.41;2218296;80;21002;-81
2022/08/10 07:30:40;;;;;;;10.90;3.55;;;;;;;22.55;54.27;99917.19;2218577;80;20997;-80
2022/08/10 07:33:40;;;;;;;6.30;3.35;;;;;;;22.76;54.76;99918.08;2218206;80;21298;-81
2022/08/10 07:36:40;;;;;;;4.72;3.10;;;;;;;23.11;53.67;99925.80;2218050;80;21067;-81
2022/08/10 07:39:41;;;;;;;4.05;2.27;;;;;;;23.37;53.26;99926.09;2218913;80;20924;-82
2022/08/10 07:42:41;;;;;;;4.05;2.62;;;;;;;23.46;50.57;99927.24;2218664;80;21834;-82
2022/08/10 07:45:42;;;;;;;6.67;2.80;;;;;;;23.46;50.45;99923.25;2218730;80;21024;-82
2022/08/10 07:48:42;;;;;;;12.25;3.20;;;;;;;23.58;50.82;99917.23;2218797;80;20963;-84
2022/08/10 07:51:42;;;;;;;3.98;2.70;;;;;;;23.65;50.17;99921.05;2219044;80;20964;-82
2022/08/10 07:54:43;;;;;;;5.20;2.65;;;;;;;23.51;49.92;99921.34;2218593;80;20988;-82
2022/08/10 07:57:43;;;;;;;4.00;2.40;;;;;;;23.62;49.06;99916.25;2218810;80;21031;-81
2022/08/10 08:00:44;;;;;;;3.00;2.35;;;;;;;23.55;48.71;99926.64;2211561;80;21031;-82
2022/08/10 08:03:44;;;;;;;4.83;3.00;;;;;;;23.40;47.80;99927.35;2209011;81;21035;-82
2022/08/10 08:06:45;;;;;;;3.25;2.60;;;;;;;23.51;49.07;99927.13;2209388;81;20964;-79
2022/08/10 08:09:45;;;;;;;5.10;2.60;;;;;;;23.93;49.72;99922.58;2208766;81;20983;-81
2022/08/10 08:12:45;;;;;;;5.03;2.80;;;;;;;24.26;47.89;99922.61;2208814;81;21008;-82
2022/08/10 08:15:46;;;;;;;4.17;2.30;;;;;;;24.52;46.30;99923.30;2208776;81;21012;-81
2022/08/10 08:18:46;;;;;;;4.50;2.35;;;;;;;24.75;44.83;99925.73;2208141;81;21875;-80
2022/08/10 08:21:47;;;;;;;2.85;2.12;;;;;;;24.96;44.60;99926.89;2208297;81;21074;-81
2022/08/10 08:24:47;;;;;;;14.30;2.70;;;;;;;24.97;44.09;99919.76;2207841;81;20953;-80
2022/08/10 08:27:51;;;;;;;16.90;6.62;;;;;;;24.99;44.41;99917.95;2207772;81;21407;-79
2022/08/10 08:30:48;;;;;;;6.22;2.20;;;;;;;24.89;44.56;99917.78;2206226;81;21078;-80
2022/08/10 08:33:48;;;;;;;7.00;2.67;;;;;;;24.89;43.42;99918.66;2205147;81;21027;-79
2022/08/10 08:36:49;;;;;;;15.53;3.60;;;;;;;24.55;44.70;99916.08;2205947;81;21366;-83
2022/08/10 08:39:52;;;;;;;15.13;3.50;;;;;;;24.29;45.29;99911.92;2208328;81;21371;-82
2022/08/10 08:42:52;;;;;;;10.60;3.10;;;;;;;24.10;45.68;99909.67;2207567;81;20941;-83
2022/08/10 08:45:53;;;;;;;2.72;2.52;;;;;;;24.09;46.10;99907.05;2207887;81;21007;-80
2022/08/10 08:48:53;;;;;;;2.90;2.60;;;;;;;24.58;45.47;99903.98;2207916;81;21039;-82
2022/08/10 08:51:54;;;;;;;6.55;2.35;;;;;;;24.68;44.98;99903.26;2208398;81;21047;-82
2022/08/10 08:54:56;;;;;;;3.90;2.30;;;;;;;24.44;44.61;99906.16;2185063;81;21070;-81
2022/08/10 08:57:56;;;;;;;3.42;2.27;;;;;;;24.00;45.94;99907.29;2208392;81;20916;-81
2022/08/10 09:00:57;;;;;;;3.37;2.80;;;;;;;24.18;46.38;99903.27;2214701;80;21469;-81
2022/08/10 09:03:57;;;;;;;3.20;2.30;;;;;;;24.23;45.87;99903.55;2218383;80;21395;-81
2022/08/10 09:06:59;;;;;;;11.15;2.92;;;;;;;23.81;46.42;99905.55;2218544;80;20936;-81
2022/08/10 09:09:58;;;;;;;4.40;2.67;;;;;;;23.54;47.42;99907.53;2218608;80;21043;-81
2022/08/10 09:12:58;;;;;;;3.25;2.35;;;;;;;24.12;47.63;99900.30;2218621;80;20967;-81
2022/08/10 09:15:59;;;;;;;8.58;2.83;;;;;;;24.53;45.40;99909.03;2218650;80;21030;-81
2022/08/10 09:19:00;;;;;;;7.58;2.75;;;;;;;24.13;44.25;99917.59;2219165;80;21019;-81
2022/08/10 09:22:00;;;;;;;6.20;3.10;;;;;;;23.86;46.69;99907.64;2219158;80;20952;-82
2022/08/10 09:25:00;;;;;;;8.53;3.15;;;;;;;24.41;45.30;99900.91;2219210;80;20931;-83
2022/08/10 09:28:00;;;;;;;8.00;2.85;;;;;;;24.56;44.76;99903.61;2219924;80;21007;-82
2022/08/10 09:31:01;;;;;;;21.30;4.28;;;;;;;24.02;45.52;99905.46;2219179;80;21046;-81
2022/08/10 09:34:02;;;;;;;11.20;3.10;;;;;;;23.62;46.59;99906.92;2219352;80;21370;-81
2022/08/10 09:37:02;;;;;;;10.15;2.90;;;;;;;23.75;46.72;99903.04;2219931;80;20971;-81
2022/08/10 09:40:02;;;;;;;5.37;2.70;;;;;;;24.27;46.31;99891.05;2219396;80;20967;-82
2022/08/10 09:43:03;;;;;;;9.80;2.80;;;;;;;24.52;44.80;99889.47;2219859;80;21354;-81
2022/08/10 09:46:03;;;;;;;9.38;3.20;;;;;;;24.59;44.08;99887.05;2219616;80;21104;-81
2022/08/10 09:49:03;;;;;;;4.42;3.08;;;;;;;24.63;44.38;99890.05;2218613;80;21003;-78
2022/08/10 09:52:04;;;;;;;13.38;3.62;;;;;;;24.30;44.45;99885.20;2217826;80;21003;-83
2022/08/10 09:55:04;;;;;;;7.20;3.02;;;;;;;23.93;44.91;99877.24;2219471;80;21034;-82
2022/08/10 09:58:05;;;;;;;3.00;2.52;;;;;;;24.08;45.44;99871.95;2219833;80;21028;-83
2022/08/10 10:01:05;;;;;;;39.45;4.92;;;;;;;23.99;46.31;99866.41;2213303;80;21071;-81
2022/08/10 10:04:05;;;;;;;3.95;2.30;;;;;;;23.77;46.30;99869.22;2208802;81;20995;-82
2022/08/10 10:07:06;;;;;;;7.12;2.52;;;;;;;24.14;46.75;99864.67;2208432;81;21003;-82
2022/08/10 10:10:06;;;;;;;2.58;1.90;;;;;;;24.65;44.53;99860.63;2209234;81;20963;-83
2022/08/10 10:13:07;;;;;;;7.33;2.40;;;;;;;25.12;42.62;99847.66;2208683;81;20987;-80
2022/08/10 10:16:08;;;;;;;2.83;2.27;;;;;;;25.57;41.49;99850.67;2208245;81;21027;-82
2022/08/10 10:19:08;;;;;;;3.72;2.00;;;;;;;25.89;41.97;99838.45;2208159;81;20960;-83
2022/08/10 10:22:08;;;;;;;5.12;2.02;;;;;;;26.28;41.25;99842.00;2208250;81;20913;-82
2022/08/10 10:25:08;;;;;;;3.42;2.10;;;;;;;26.51;39.96;99835.36;2208162;81;21011;-83
2022/08/10 10:28:09;;;;;;;5.03;2.33;;;;;;;26.49;37.45;99839.91;2208529;81;21052;-80
2022/08/10 10:31:09;;;;;;;8.28;2.10;;;;;;;25.99;38.83;99843.89;2208459;81;21008;-82
2022/08/10 10:34:10;;;;;;;5.95;1.90;;;;;;;25.51;39.54;99837.52;2208866;81;21450;-80
2022/08/10 10:37:10;;;;;;;2.30;2.10;;;;;;;25.76;39.81;99839.80;2208188;81;21039;-81
2022/08/10 10:40:11;;;;;;;3.20;2.02;;;;;;;26.09;39.98;99836.91;2207720;81;20957;-81
2022/08/10 10:43:11;;;;;;;8.70;2.47;;;;;;;26.45;38.92;99832.91;2207901;81;20968;-78
2022/08/10 10:46:12;;;;;;;2.77;2.12;;;;;;;26.10;38.29;99837.31;2207691;81;21003;-82
2022/08/10 10:49:12;;;;;;;9.15;2.30;;;;;;;25.33;39.07;99843.88;2206993;81;20992;-84
2022/08/10 10:52:12;;;;;;;1.82;1.67;;;;;;;24.89;39.62;99837.66;2206831;81;20992;-82
2022/08/10 10:55:13;;;;;;;5.30;1.95;;;;;;;25.15;39.29;99833.78;2208855;81;21404;-82
2022/08/10 10:58:13;;;;;;;2.00;1.80;;;;;;;25.45;39.12;99827.89;2208773;81;20988;-81
2022/08/10 11:01:14;;;;;;;5.08;2.12;;;;;;;25.70;39.57;99822.62;2215238;80;21126;-79
2022/08/10 11:04:14;;;;;;;6.22;2.00;;;;;;;25.84;38.73;99825.70;2219450;80;21027;-80
2022/08/10 11:07:14;;;;;;;8.90;2.37;;;;;;;26.12;38.88;99826.97;2219498;80;21011;-79
2022/08/10 11:10:15;;;;;;;8.60;2.52;;;;;;;26.27;38.02;99812.16;2220544;80;21015;-80
2022/08/10 11:13:15;;;;;;;33.10;4.30;;;;;;;26.47;36.20;99814.12;2220175;80;20928;-81
2022/08/10 11:16:15;;;;;;;1.75;1.57;;;;;;;26.43;36.66;99801.31;2220704;80;21008;-81
2022/08/10 11:19:16;;;;;;;3.35;1.80;;;;;;;26.70;37.20;99795.37;2219791;80;21526;-82
2022/08/10 11:22:16;;;;;;;2.62;1.90;;;;;;;26.92;36.04;99794.95;2220020;80;21039;-82
2022/08/10 11:25:17;;;;;;;11.43;2.30;;;;;;;26.27;35.47;99798.77;2220256;80;20957;-82
2022/08/10 11:28:17;;;;;;;2.15;1.92;;;;;;;25.66;36.13;99811.63;2219932;80;21474;-81
2022/08/10 11:31:17;;;;;;;10.20;3.10;;;;;;;25.20;36.54;99802.91;2219354;80;21007;-81
2022/08/10 11:34:18;;;;;;;5.80;1.50;;;;;;;24.81;36.45;99803.64;2219062;80;20975;-81
2022/08/10 11:37:18;;;;;;;4.30;1.52;;;;;;;25.00;35.27;99795.50;2218968;80;21075;-81
2022/08/10 11:40:19;;;;;;;5.33;1.42;;;;;;;25.40;33.76;99799.11;2219557;80;20999;-84
2022/08/10 11:43:20;;;;;;;1.65;1.35;;;;;;;25.77;33.99;99796.09;2219055;80;20935;-84
2022/08/10 11:46:20;;;;;;;3.75;1.67;;;;;;;26.15;34.90;99788.52;2219537;80;21034;-83
2022/08/10 11:49:20;;;;;;;1.30;1.30;;;;;;;26.44;33.55;99792.81;2221269;80;21012;-83
2022/08/10 11:52:21;;;;;;;2.75;1.32;;;;;;;26.47;33.02;99784.67;2221017;80;20979;-82
2022/08/10 11:55:21;;;;;;;2.50;1.20;;;;;;;26.54;34.10;99784.38;2219410;80;20976;-81
2022/08/10 12:01:40;;;;;;;3.47;1.70;;;;;;;27.19;33.67;99784.97;2212823;80;21751;-82
2022/08/10 12:04:50;;;;;;;1.55;1.40;;;;;;;27.25;33.43;99787.39;2208147;81;20968;-82
2022/08/10 12:07:50;;;;;;;5.67;1.90;;;;;;;27.37;33.48;99780.64;2209094;81;21434;-77
2022/08/10 12:10:50;;;;;;;4.10;1.47;;;;;;;26.66;33.80;99789.26;2203442;81;20995;-76
2022/08/10 12:13:51;;;;;;;4.75;1.60;;;;;;;26.32;34.09;99780.30;2203195;81;20996;-76
2022/08/10 12:16:51;;;;;;;2.55;1.70;;;;;;;25.97;34.64;99787.35;2204422;81;21011;-79
2022/08/10 12:19:52;;;;;;;3.22;2.17;;;;;;;25.75;34.66;99784.57;2205336;81;20944;-80
2022/08/10 12:22:55;;;;;;;1.75;1.40;;;;;;;25.71;35.96;99781.13;2205248;81;21055;-82
2022/08/10 12:25:52;;;;;;;5.47;2.00;;;;;;;26.27;34.71;99767.53;2206852;81;20968;-80
2022/08/10 12:28:53;;;;;;;1.72;1.62;;;;;;;26.68;34.69;99784.31;2206865;81;20928;-81
2022/08/10 12:31:53;;;;;;;1.80;1.70;;;;;;;26.81;34.93;99760.13;2206812;81;21051;-82
2022/08/10 12:34:54;;;;;;;4.30;1.80;;;;;;;26.90;35.08;99767.83;2207039;81;20945;-81
2022/08/10 12:37:54;;;;;;;1.60;1.50;;;;;;;26.42;34.16;99779.49;2207346;81;20984;-81
2022/08/10 12:40:57;;;;;;;2.00;1.80;;;;;;;26.01;34.22;99775.19;2205747;81;20984;-82
2022/08/10 12:43:58;;;;;;;4.10;1.65;;;;;;;25.69;35.16;99766.94;2208307;81;22031;-82
2022/08/10 12:46:58;;;;;;;3.00;1.80;;;;;;;25.66;35.48;99770.19;2208154;81;20969;-81
2022/08/10 12:49:58;;;;;;;2.35;1.50;;;;;;;26.14;35.28;99757.34;2207782;81;21040;-81
2022/08/10 12:52:59;;;;;;;2.47;1.80;;;;;;;26.56;35.24;99758.42;2208381;81;20995;-82
2022/08/10 12:56:00;;;;;;;16.42;3.35;;;;;;;26.54;34.57;99760.28;2208202;81;21046;-82
2022/08/10 12:59:00;;;;;;;3.25;1.60;;;;;;;26.12;35.87;99754.72;2207876;81;21174;-82
2022/08/10 13:02:01;;;;;;;2.58;1.77;;;;;;;25.71;35.39;99757.53;2214862;80;21063;-82
2022/08/10 13:05:01;;;;;;;1.70;1.60;;;;;;;25.64;35.45;99753.30;2218997;80;21347;-81
2022/08/10 13:11:21;;;;;;;1.72;1.60;;;;;;;25.43;36.21;99754.91;2218859;80;21004;-81
2022/08/10 13:14:21;;;;;;;1.82;1.70;;;;;;;25.32;36.48;99743.25;2218322;80;21007;-82
2022/08/10 13:17:21;;;;;;;2.30;1.60;;;;;;;25.55;35.87;99744.26;2218377;80;21003;-82
2022/08/10 13:20:22;;;;;;;3.15;1.90;;;;;;;25.87;35.48;99731.98;2218244;80;20994;-81
2022/08/10 13:23:22;;;;;;;2.27;1.87;;;;;;;26.29;35.26;99727.33;2217975;80;21600;-83
2022/08/10 13:26:23;;;;;;;3.55;1.57;;;;;;;26.55;34.76;99727.22;2217845;80;20995;-82
2022/08/10 13:29:23;;;;;;;1.82;1.60;;;;;;;26.73;33.31;99718.92;2217872;80;21222;-83
2022/08/10 13:32:26;;;;;;;3.22;1.45;;;;;;;26.20;34.06;99738.38;2218132;80;21043;-81
2022/08/10 13:35:30;;;;;;;2.30;1.72;;;;;;;25.60;35.66;99729.80;2218543;80;21058;-83
2022/08/10 13:38:30;;;;;;;3.00;1.85;;;;;;;25.27;36.67;99723.83;2219342;80;20960;-81
2022/08/10 13:41:31;;;;;;;6.47;2.12;;;;;;;25.00;37.59;99726.05;2219550;80;20964;-82
2022/08/10 13:44:31;;;;;;;2.33;1.57;;;;;;;24.88;38.07;99722.42;2220595;80;21010;-82
2022/08/10 13:47:31;;;;;;;3.35;1.85;;;;;;;25.24;37.88;99717.72;2222666;80;21354;-82
2022/08/10 13:50:32;;;;;;;5.45;1.85;;;;;;;25.61;37.36;99714.17;2221882;80;20975;-79
2022/08/10 13:53:32;;;;;;;3.80;1.60;;;;;;;25.87;36.39;99709.25;2220871;80;21345;-77
2022/08/10 13:56:33;;;;;;;3.00;1.50;;;;;;;26.06;34.66;99708.12;2220883;80;20976;-79
2022/08/10 13:59:33;;;;;;;1.70;1.30;;;;;;;26.18;33.41;99712.14;2222428;80;20904;-82
2022/08/10 14:02:34;;;;;;;5.12;1.20;;;;;;;26.16;32.28;99712.67;2214719;80;21126;-81
2022/08/10 14:05:34;;;;;;;1.50;1.32;;;;;;;26.25;32.52;99701.61;2210860;81;20964;-83
2022/08/10 14:08:35;;;;;;;2.40;1.17;;;;;;;26.38;32.27;99692.20;2209869;81;20999;-82
2022/08/10 14:11:35;;;;;;;2.95;1.47;;;;;;;26.58;32.34;99690.95;2210216;81;21327;-83
2022/08/10 14:14:40;;;;;;;3.75;1.00;;;;;;;26.80;32.25;99692.76;2210390;81;20968;-82